• Join FlightAware (Why Join?)
  • Login
  • US Flag 
08:02AM EST


 

Airport Tracker/Info


-or-


 

Live Flight TrackerFlight Track Log ✈ JST953 ✈ 12-May-2013 ✈ YBCS / CNS - YSSY / SYD

Flight Track Log - Related Links

Times and Time Zones

All times are in EDT time to prevent confusion due to time zone crossing. See the JST953 flight status page for this flight to view local times or setup timezone preferences in your user account.

Time Position Orientation Groundspeed Altitude Reporting Facility
EDT Latitude Longitude Course Direction KTS MPH feet Rate Location/Type
04:53PM -16.8860 145.7810 39° Northeast 147 169 2,600  Level FlightAware
04:53PM -16.8820 145.7837 46° Northeast 155 178 2,900 1,980 Climbing Aus ATC (RADAR)
04:53PM -16.8780 145.7880 40° Northeast 144 166 3,100 1,020 Climbing FlightAware
04:54PM -16.8620 145.8000 36° Northeast 184 212 3,600 1,320 Climbing FlightAware
04:54PM -16.8448 145.8168 36° Northeast 190 219 4,100 780 Climbing Aus ATC (RADAR)
04:54PM -16.8440 145.8220 36° Northeast 220 253 4,000 360 Descending FlightAware
04:54PM -16.8430 145.8280 80° East 225 259 4,200 2,400 Climbing FlightAware
04:55PM -16.8550 145.8530 117° Southeast 251 289 5,200 2,640 Climbing FlightAware
04:55PM -16.8800 145.8700 147° Southeast 268 308 6,400 2,820 Climbing FlightAware
04:56PM -16.9120 145.8900 149° Southeast 279 321 7,800 3,180 Climbing FlightAware
04:56PM -16.9300 145.9010 150° Southeast 279 321 8,800 3,720 Climbing FlightAware
04:56PM -16.9605 145.9193 150° Southeast 285 328 10,000 2,640 Climbing Aus ATC (RADAR)
04:56PM -16.9590 145.9190 150° Southeast 297 342 9,900 1,200 Descending FlightAware
04:57PM -17.0180 145.9550 150° Southeast 345 397 11,000 1,980 Climbing FlightAware
04:57PM -17.0470 145.9739 150° Southeast 351 404 11,900 2,400 Climbing Aus ATC (RADAR)
04:58PM -17.0740 145.9910 150° Southeast 361 415 12,600 2,460 Climbing FlightAware
04:58PM -17.1330 146.0270 150° Southeast 359 413 14,600 2,400 Climbing FlightAware
04:59PM -17.1980 146.0680 149° Southeast 375 432 16,000 2,220 Climbing FlightAware
05:00PM -17.2446 146.0977 149° Southeast 372 428 17,200 2,220 Climbing Aus ATC (RADAR)
05:00PM -17.2590 146.1040 149° Southeast 370 426 17,500 1,800 Climbing FlightAware
05:00PM -17.3240 146.1310 158° South 382 440 18,900 2,160 Climbing FlightAware
05:01PM -17.4016 146.1634 158° South 382 440 20,400 1,860 Climbing Aus ATC (RADAR)
05:01PM -17.4010 146.1630 158° South 383 441 20,300 2,400 Descending FlightAware
05:02PM -17.4605 146.1879 158° South 386 444 21,800 2,400 Climbing Aus ATC (RADAR)
05:02PM -17.4680 146.1920 158° South 385 443 21,900 1,500 Climbing FlightAware
05:02PM -17.5189 146.2126 158° South 388 447 22,700 1,560 Climbing Aus ATC (RADAR)
05:03PM -17.5440 146.2230 158° South 395 455 23,100 1,500 Climbing FlightAware
05:03PM -17.5788 146.2376 158° South 393 452 23,600 1,020 Climbing Aus ATC (RADAR)
05:03PM -17.6120 146.2520 158° South 402 463 23,800 1,080 Climbing FlightAware
05:04PM -17.6840 146.2820 158° South 416 479 24,800 1,980 Climbing FlightAware
05:04PM -17.7032 146.2899 158° South 415 478 25,300 2,280 Climbing Aus ATC (RADAR)
05:05PM -17.7557 146.3120 158° South 406 467 26,100 1,020 Climbing Aus ATC (RADAR)
05:05PM -17.7620 146.3150 158° South 414 476 26,000 540 Descending FlightAware
05:05PM -17.8380 146.3470 158° South 419 482 26,600 1,080 Climbing FlightAware
05:06PM -17.9206 146.3815 158° South 430 495 27,500 1,020 Climbing Aus ATC (RADAR)
05:06PM -17.9110 146.3770 158° South 434 499 27,300 960 Descending FlightAware
05:07PM -17.9768 146.4057 158° South 433 498 28,000 900 Climbing Aus ATC (RADAR)
05:07PM -17.9940 146.4130 158° South 435 501 28,000 1,020 Level FlightAware
05:07PM -18.0536 146.4379 158° South 443 510 28,700 1,020 Climbing Aus ATC (RADAR)
05:07PM -18.0690 146.4440 158° South 448 516 28,700 660 Level FlightAware
05:08PM -18.1660 146.4850 158° South 458 527 29,400 1,140 Climbing FlightAware
05:09PM -18.2495 146.5211 158° South 458 527 30,300 1,020 Climbing Aus ATC (RADAR)
05:09PM -18.2450 146.5180 158° South 461 531 30,100 1,200 Descending FlightAware
05:09PM -18.3191 146.5506 158° South 462 532 31,000 1,200 Climbing Aus ATC (RADAR)
05:10PM -18.3360 146.5570 158° South 463 533 31,000 1,020 Level FlightAware
05:10PM -18.4170 146.5920 158° South 461 531 31,900 1,500 Climbing FlightAware
05:10PM -18.4285 146.5972 158° South 461 531 32,100 1,260 Climbing Aus ATC (RADAR)
05:11PM -18.4585 146.6099 158° South 461 531 32,300 660 Climbing Aus ATC (RADAR)
05:11PM -18.4960 146.6250 158° South 466 536 32,500 960 Climbing FlightAware
05:12PM -18.5840 146.6620 158° South 461 531 33,400 1,320 Climbing FlightAware
05:12PM -18.6670 146.6987 158° South 460 529 34,400 1,200 Climbing Aus ATC (RADAR)
05:12PM -18.6640 146.6960 158° South 459 528 34,200 780 Descending FlightAware
05:13PM -18.7265 146.7240 158° South 463 533 34,800 900 Climbing Aus ATC (RADAR)
05:13PM -18.7550 146.7350 158° South 462 532 34,900 840 Climbing FlightAware
05:13PM -18.7959 146.7534 158° South 464 534 35,300 720 Climbing Aus ATC (RADAR)
05:14PM -18.8350 146.7690 158° South 466 536 35,400 840 Climbing FlightAware
05:14PM -18.9150 146.8030 158° South 464 534 36,200 1,020 Climbing FlightAware
05:15PM -18.9990 146.8390 158° South 462 532 36,900 540 Climbing FlightAware
05:16PM -19.0780 146.8730 158° South 453 521 37,000 120 Climbing FlightAware
05:17PM -19.1620 146.9101 158° South 451 519 37,100  Climbing Aus ATC (RADAR)
05:17PM -19.1680 146.9120 158° South 455 524 37,000  Descending FlightAware
05:17PM -19.2207 146.9354 158° South 450 518 37,100  Climbing Aus ATC (RADAR)
05:17PM -19.2490 146.9460 158° South 455 524 37,000  Descending FlightAware
05:18PM -19.2986 146.9689 158° South 448 516 37,100  Climbing Aus ATC (RADAR)
05:18PM -19.3220 146.9780 158° South 455 524 37,000 -120 Descending FlightAware
05:19PM -19.4140 147.0170 158° South 455 524 37,000  Level FlightAware
05:19PM -19.4920 147.0510 158° South 455 524 37,000  Level FlightAware
05:20PM -19.5750 147.0860 158° South 455 524 37,000 60 Level FlightAware
05:21PM -19.6599 147.1239 158° South 448 516 37,100  Climbing Aus ATC (RADAR)
05:21PM -19.6590 147.1220 158° South 454 522 37,000  Descending FlightAware
05:21PM -19.6992 147.1402 158° South 452 520 37,100  Climbing Aus ATC (RADAR)
05:21PM -19.7380 147.1560 158° South 454 522 37,000 -120 Descending FlightAware
05:22PM -19.8250 147.1920 159° South 452 520 37,000 60 Level FlightAware
05:23PM -19.9074 147.2152 159° South 447 514 37,100  Climbing Aus ATC (RADAR)
05:23PM -19.9050 147.2150 159° South 450 518 37,000  Descending FlightAware
05:23PM -19.9666 147.2323 159° South 442 509 37,100  Climbing Aus ATC (RADAR)
05:24PM -19.9950 147.2390 159° South 451 519 37,000  Descending FlightAware
05:24PM -20.0388 147.2505 159° South 443 510 37,100  Climbing Aus ATC (RADAR)
05:24PM -20.0770 147.2610 159° South 450 518 37,000 -120 Descending FlightAware
05:25PM -20.1590 147.2830 166° South 451 519 37,000  Level FlightAware
05:26PM -20.2380 147.3050 166° South 451 519 37,000 120 Level FlightAware
05:26PM -20.2507 147.3084 166° South 443 510 37,100 240 Climbing Aus ATC (RADAR)
05:26PM -20.2911 147.3195 166° South 443 510 37,100 -180 Level Aus ATC (RADAR)
05:26PM -20.3290 147.3300 166° South 450 518 37,000  Descending FlightAware
05:26PM -20.3422 147.3326 166° South 448 516 37,100 180 Climbing Aus ATC (RADAR)
05:27PM -20.4026 147.3495 166° South 449 517 37,100 -180 Level Aus ATC (RADAR)
05:27PM -20.4100 147.3520 166° South 450 518 37,000  Descending FlightAware
05:28PM -20.4929 147.3742 166° South 441 507 37,100  Climbing Aus ATC (RADAR)
05:28PM -20.5010 147.3760 166° South 449 517 37,000 -180 Descending FlightAware
05:28PM -20.5820 147.3990 165° South 449 517 37,000  Level FlightAware
05:29PM -20.6730 147.4230 165° South 450 518 37,000 120 Level FlightAware
05:29PM -20.6847 147.4265 165° South 449 517 37,100 360 Climbing Aus ATC (RADAR)
05:30PM -20.7450 147.4427 165° South 441 507 37,200 -180 Climbing Aus ATC (RADAR)
05:30PM -20.7560 147.4460 165° South 450 518 37,000 -240 Descending FlightAware
05:31PM -20.8480 147.4710 166° South 450 518 37,000 120 Level FlightAware
05:31PM -20.9175 147.4898 166° South 453 521 37,200  Climbing Aus ATC (RADAR)
05:31PM -20.9280 147.4930 166° South 450 518 37,000  Descending FlightAware
05:32PM -20.9871 147.5092 166° South 441 507 37,200  Climbing Aus ATC (RADAR)
05:32PM -21.0000 147.5130 166° South 449 517 37,000  Descending FlightAware
05:32PM -21.0578 147.5286 166° South 444 511 37,200  Climbing Aus ATC (RADAR)
05:33PM -21.0790 147.5350 166° South 448 516 37,000  Descending FlightAware
05:33PM -21.1281 147.5479 166° South 446 513 37,200  Climbing Aus ATC (RADAR)
05:33PM -21.1640 147.5590 166° South 448 516 37,000  Descending FlightAware
05:34PM -21.2689 147.5867 166° South 443 510 37,200  Climbing Aus ATC (RADAR)
05:34PM -21.2320 147.5790 166° South 448 516 37,000  Descending FlightAware
05:35PM -21.3297 147.6035 166° South 446 513 37,200  Climbing Aus ATC (RADAR)
05:35PM -21.3000 147.5990 166° South 448 516 37,000 -240 Descending FlightAware
05:35PM -21.3680 147.6180 165° South 448 516 37,000 120 Level FlightAware
05:36PM -21.5014 147.6510 165° South 444 511 37,200  Climbing Aus ATC (RADAR)
05:36PM -21.4360 147.6380 165° South 448 516 37,000  Descending FlightAware
05:37PM -21.5723 147.6707 165° South 446 513 37,200  Climbing Aus ATC (RADAR)
05:37PM -21.5210 147.6620 165° South 448 516 37,000 -240 Descending FlightAware
05:38PM -21.5890 147.6820 165° South 448 516 37,000 120 Level FlightAware
05:38PM -21.7753 147.7268 165° South 446 513 37,200  Climbing Aus ATC (RADAR)
05:38PM -21.6570 147.7010 165° South 448 516 37,000  Descending FlightAware
05:39PM -21.8460 147.7469 165° South 447 514 37,200  Climbing Aus ATC (RADAR)
05:39PM -21.7250 147.7210 165° South 448 516 37,000  Descending FlightAware
05:39PM -21.9069 147.7635 165° South 451 519 37,200  Climbing Aus ATC (RADAR)
05:40PM -21.7930 147.7410 165° South 448 516 37,000 -180 Descending FlightAware
05:40PM -21.9630 147.7790 168° South 450 518 37,000 120 Level FlightAware
05:41PM -22.0877 147.8147 168° South 446 513 37,200  Climbing Aus ATC (RADAR)
05:41PM -22.0520 147.8030 168° South 448 516 37,000  Descending FlightAware
05:41PM -22.1579 147.8334 168° South 445 512 37,200 240 Climbing Aus ATC (RADAR)
05:42PM -22.2185 147.8498 166° South 442 509 37,200 -360 Level Aus ATC (RADAR)
05:42PM -22.1520 147.8310 166° South 449 517 37,000  Descending FlightAware
05:43PM -22.2991 147.8721 166° South 445 512 37,200  Climbing Aus ATC (RADAR)
05:43PM -22.2350 147.8540 166° South 451 519 37,000  Descending FlightAware
05:43PM -22.3704 147.8925 166° South 450 518 37,200  Climbing Aus ATC (RADAR)
05:43PM -22.3240 147.8790 166° South 453 521 37,000 -240 Descending FlightAware
05:44PM -22.4090 147.9020 166° South 455 524 37,000 120 Level FlightAware
05:45PM -22.5745 147.9497 166° South 455 524 37,200  Climbing Aus ATC (RADAR)
05:45PM -22.4940 147.9260 166° South 455 524 37,000 -300 Descending FlightAware
05:45PM -22.5740 147.9490 165° South 455 524 37,000 180 Level FlightAware
05:46PM -22.6964 147.9838 165° South 451 519 37,200  Climbing Aus ATC (RADAR)
05:46PM -22.6780 147.9780 165° South 453 521 37,000  Descending FlightAware
05:47PM -22.8278 148.0205 165° South 452 520 37,200  Climbing Aus ATC (RADAR)
05:47PM -22.7590 148.0010 165° South 452 520 37,000  Descending FlightAware
05:48PM -22.9088 148.0436 165° South 453 521 37,200  Climbing Aus ATC (RADAR)
05:48PM -22.8410 148.0240 165° South 452 520 37,000  Descending FlightAware
05:48PM -22.9797 148.0633 165° South 452 520 37,200  Climbing Aus ATC (RADAR)
05:48PM -22.9420 148.0520 165° South 452 520 37,000  Descending FlightAware
05:49PM -23.0408 148.0803 165° South 453 521 37,200  Climbing Aus ATC (RADAR)
05:49PM -23.0070 148.0700 165° South 452 520 37,000 -240 Descending FlightAware
05:50PM -23.0990 148.0960 165° South 452 520 37,000 240 Level FlightAware
05:50PM -23.1728 148.1177 165° South 453 521 37,200  Climbing Aus ATC (RADAR)
05:50PM -23.1870 148.1210 165° South 452 520 37,000  Descending FlightAware
05:51PM -23.3039 148.1553 165° South 451 519 37,200 300 Climbing Aus ATC (RADAR)
05:51PM -23.3444 148.1664 166° South 451 519 37,200 -600 Level Aus ATC (RADAR)
05:51PM -23.2560 148.1410 166° South 452 520 37,000  Descending FlightAware
05:51PM -23.3849 148.1777 166° South 451 519 37,200  Climbing Aus ATC (RADAR)
05:52PM -23.3790 148.1760 166° South 451 519 37,000  Descending FlightAware
05:53PM -23.5262 148.2178 166° South 450 518 37,200  Climbing Aus ATC (RADAR)
05:53PM -23.4580 148.1980 166° South 450 518 37,000  Descending FlightAware
05:53PM -23.5766 148.2323 166° South 451 519 37,200  Climbing Aus ATC (RADAR)
05:53PM -23.5410 148.2210 166° South 450 518 37,000 -180 Descending FlightAware
05:54PM -23.6440 148.2510 165° South 450 518 37,000 120 Level FlightAware
05:55PM -23.7788 148.2896 165° South 452 520 37,200  Climbing Aus ATC (RADAR)
05:55PM -23.7120 148.2700 165° South 451 519 37,000  Descending FlightAware
05:55PM -23.8395 148.3069 165° South 450 518 37,200  Climbing Aus ATC (RADAR)
05:56PM -23.8320 148.3050 165° South 453 521 37,000 -240 Descending FlightAware
05:56PM -23.8930 148.3220 166° South 454 522 37,000 120 Level FlightAware
05:57PM -24.0430 148.3654 166° South 455 524 37,200  Climbing Aus ATC (RADAR)
05:57PM -23.9930 148.3510 166° South 453 521 37,000  Descending FlightAware
05:57PM -24.1036 148.3826 166° South 452 520 37,200  Climbing Aus ATC (RADAR)
05:58PM -24.0560 148.3690 166° South 454 522 37,000  Descending FlightAware
05:58PM -24.1948 148.4090 166° South 452 520 37,200  Climbing Aus ATC (RADAR)
05:58PM -24.1520 148.3960 166° South 453 521 37,000  Descending FlightAware
05:59PM -24.2658 148.4294 166° South 452 520 37,200  Climbing Aus ATC (RADAR)
05:59PM -24.2500 148.4240 166° South 452 520 37,000  Descending FlightAware
06:00PM -24.3969 148.4671 166° South 448 516 37,200  Climbing Aus ATC (RADAR)
06:00PM -24.3320 148.4480 166° South 451 519 37,000  Descending FlightAware
06:00PM -24.4676 148.4874 166° South 450 518 37,200  Climbing Aus ATC (RADAR)
06:00PM -24.4340 148.4780 166° South 450 518 37,000 -300 Descending FlightAware
06:01PM -24.4990 148.4960 166° South 450 518 37,000 180 Level FlightAware
06:01PM -24.5987 148.5252 166° South 447 514 37,200  Climbing Aus ATC (RADAR)
06:02PM -24.5790 148.5190 166° South 450 518 37,000  Descending FlightAware
06:03PM -24.7305 148.5634 166° South 451 519 37,200  Climbing Aus ATC (RADAR)
06:03PM -24.6760 148.5470 166° South 451 519 37,000  Descending FlightAware
06:03PM -24.8115 148.5869 166° South 452 520 37,200  Climbing Aus ATC (RADAR)
06:03PM -24.7500 148.5690 166° South 452 520 37,000  Descending FlightAware
06:04PM -24.8824 148.6076 166° South 451 519 37,200  Climbing Aus ATC (RADAR)
06:04PM -24.8590 148.6010 166° South 453 521 37,000 -240 Descending FlightAware
06:05PM -24.9310 148.6210 166° South 453 521 37,000 120 Level FlightAware
06:06PM -25.0951 148.6698 166° South 451 519 37,200  Climbing Aus ATC (RADAR)
06:06PM -25.0150 148.6460 166° South 453 521 37,000 -300 Descending FlightAware
06:06PM -25.0840 148.6670 165° South 453 521 37,000 180 Level FlightAware
06:07PM -25.2162 148.7048 165° South 448 516 37,200  Climbing Aus ATC (RADAR)
06:07PM -25.1700 148.6920 165° South 453 521 37,000  Descending FlightAware
06:08PM -25.3463 148.7425 165° South 444 511 37,200  Climbing Aus ATC (RADAR)
06:08PM -25.2390 148.7130 165° South 453 521 37,000  Descending FlightAware
06:08PM -25.4177 148.7637 165° South 449 517 37,200  Climbing Aus ATC (RADAR)
06:08PM -25.3080 148.7330 165° South 453 521 37,000  Descending FlightAware
06:09PM -25.4875 148.7845 165° South 447 514 37,200  Climbing Aus ATC (RADAR)
06:09PM -25.3770 148.7530 165° South 453 521 37,000  Descending FlightAware
06:09PM -25.5575 148.8054 165° South 446 513 37,200  Climbing Aus ATC (RADAR)
06:10PM -25.4450 148.7740 165° South 453 521 37,000 -240 Descending FlightAware
06:10PM -25.5140 148.7940 165° South 453 521 37,000 240 Level FlightAware
06:10PM -25.6973 148.8465 165° South 446 513 37,200  Climbing Aus ATC (RADAR)
06:11PM -25.6000 148.8200 165° South 453 521 37,000 -180 Descending FlightAware
06:12PM -25.6690 148.8400 165° South 453 521 37,000 120 Level FlightAware
06:12PM -25.9367 148.9165 165° South 447 514 37,200  Climbing Aus ATC (RADAR)
06:13PM -25.7380 148.8610 165° South 453 521 37,000  Descending FlightAware
06:13PM -26.0165 148.9400 165° South 446 513 37,200  Climbing Aus ATC (RADAR)
06:13PM -25.8070 148.8810 165° South 453 521 37,000  Descending FlightAware
06:14PM -26.0865 148.9606 165° South 445 512 37,200  Climbing Aus ATC (RADAR)
06:14PM -25.8760 148.9020 165° South 453 521 37,000  Descending FlightAware
06:14PM -26.1463 148.9782 165° South 444 511 37,200  Climbing Aus ATC (RADAR)
06:15PM -25.9620 148.9270 165° South 453 521 37,000  Descending FlightAware
06:15PM -26.2864 149.0201 165° South 447 514 37,200 60 Climbing Aus ATC (RADAR)
06:17PM -26.4563 149.0710 165° South 444 511 37,200  Level Aus ATC (RADAR)
06:17PM -26.5261 149.0925 165° South 443 510 37,300  Climbing Aus ATC (RADAR)
06:18PM -26.5851 149.1131 163° South 444 511 37,200  Descending Aus ATC (RADAR)
06:19PM -26.6648 149.1416 162° South 447 514 37,300 60 Climbing Aus ATC (RADAR)
06:19PM -26.7242 149.1617 163° South 446 513 37,300  Level Aus ATC (RADAR)
06:20PM -26.7934 149.1859 163° South 445 512 37,300  Level Aus ATC (RADAR)
06:20PM -26.8531 149.2066 163° South 447 514 37,300  Level Aus ATC (RADAR)
06:21PM -26.9127 149.2267 163° South 446 513 37,300  Level Aus ATC (RADAR)
06:22PM -27.0627 149.2778 163° South 450 518 37,300 60 Level Aus ATC (RADAR)
06:22PM -27.1124 149.2953 163° South 449 517 37,400 60 Climbing Aus ATC (RADAR)
06:23PM -27.1729 149.3157 163° South 452 520 37,400 -120 Level Aus ATC (RADAR)
06:23PM -27.2531 149.3437 163° South 453 521 37,300  Descending Aus ATC (RADAR)
06:24PM -27.3138 149.3643 163° South 454 522 37,400 60 Climbing Aus ATC (RADAR)
06:25PM -27.3836 149.3885 163° South 450 518 37,400  Level Aus ATC (RADAR)
06:25PM -27.4646 149.4168 163° South 454 522 37,400 -120 Level Aus ATC (RADAR)
06:26PM -27.5249 149.4377 163° South 453 521 37,300 -120 Descending Aus ATC (RADAR)
06:27PM -27.6259 149.4730 163° South 454 522 37,300  Level Aus ATC (RADAR)
06:27PM -27.6976 149.4976 163° South 458 527 37,300  Level Aus ATC (RADAR)
06:28PM -27.7680 149.5230 162° South 456 525 37,300 60 Level Aus ATC (RADAR)
06:28PM -27.8390 149.5476 163° South 456 525 37,400 60 Climbing Aus ATC (RADAR)
06:29PM -27.9105 149.5726 163° South 459 528 37,400 -120 Level Aus ATC (RADAR)
06:29PM -27.9712 149.5936 163° South 457 526 37,300 -120 Descending Aus ATC (RADAR)
06:30PM -28.0523 149.6224 163° South 456 525 37,300  Level Aus ATC (RADAR)
06:31PM -28.1231 149.6476 163° South 455 524 37,300  Level Aus ATC (RADAR)
06:32PM -28.2540 149.6921 163° South 450 518 37,300 60 Level Aus ATC (RADAR)
06:32PM -28.3120 149.7075 167° South 435 501 37,400  Climbing Aus ATC (RADAR)
06:33PM -28.3757 149.7245 167° South 409 471 37,300 -120 Descending Aus ATC (RADAR)
06:33PM -28.4468 149.7445 166° South 397 457 37,300 60 Level Aus ATC (RADAR)
06:34PM -28.5092 149.7623 166° South 394 453 37,400 60 Climbing Aus ATC (RADAR)
06:35PM -28.5637 149.7785 165° South 400 460 37,400  Level Aus ATC (RADAR)
06:35PM -28.6186 149.7941 166° South 403 464 37,400  Level Aus ATC (RADAR)
06:36PM -28.6822 149.8130 165° South 403 464 37,400  Level Aus ATC (RADAR)
06:37PM -28.7999 149.8475 166° South 400 460 37,400  Level Aus ATC (RADAR)
06:37PM -28.8632 149.8663 165° South 401 461 37,400  Level Aus ATC (RADAR)
06:38PM -28.9265 149.8849 166° South 400 460 37,400  Level Aus ATC (RADAR)
06:38PM -28.9896 149.9034 166° South 399 459 37,400  Level Aus ATC (RADAR)
06:39PM -29.0527 149.9221 166° South 398 458 37,400  Level Aus ATC (RADAR)
06:40PM -29.1064 149.9380 166° South 396 456 37,400  Level Aus ATC (RADAR)
06:40PM -29.1780 149.9590 166° South 396 456 37,400 -120 Level Aus ATC (RADAR)
06:41PM -29.2406 149.9775 166° South 396 456 37,300  Descending Aus ATC (RADAR)
06:42PM -29.3480 150.0096 165° South 395 455 37,400 60 Climbing Aus ATC (RADAR)
06:42PM -29.4107 150.0284 165° South 397 457 37,400  Level Aus ATC (RADAR)
06:43PM -29.4733 150.0473 165° South 396 456 37,400  Level Aus ATC (RADAR)
06:44PM -29.5450 150.0685 166° South 396 456 37,400  Level Aus ATC (RADAR)
06:44PM -29.5979 150.0846 165° South 390 449 37,400  Level Aus ATC (RADAR)
06:45PM -29.6604 150.1028 166° South 395 455 37,400  Level Aus ATC (RADAR)
06:45PM -29.7227 150.1215 165° South 395 455 37,400  Level Aus ATC (RADAR)
06:46PM -29.7841 150.1423 164° South 392 451 37,400  Level Aus ATC (RADAR)
06:47PM -29.9179 150.1816 166° South 393 452 37,400  Level Aus ATC (RADAR)
06:47PM -29.9535 150.1923 165° South 394 453 37,400  Level Aus ATC (RADAR)
06:48PM -30.0159 150.2107 166° South 394 453 37,400  Level Aus ATC (RADAR)
06:49PM -30.0955 150.2385 163° South 397 457 37,400  Level Aus ATC (RADAR)
06:49PM -30.1289 150.2634 147° Southeast 407 468 37,400  Level Aus ATC (RADAR)
06:50PM -30.1712 150.3364 124° Southeast 441 507 37,400  Level Aus ATC (RADAR)
06:50PM -30.1796 150.4297 96° East 470 541 37,400  Level Aus ATC (RADAR)
06:51PM -30.1500 150.5173 69° East 499 574 37,400  Level Aus ATC (RADAR)
06:52PM -30.0390 150.6217 39° Northeast 474 545 37,400 -360 Level Aus ATC (RADAR)
06:52PM -30.0410 150.6190 37° Northeast 471 542 37,000  Descending FlightAware
06:52PM -30.0044 150.6523 37° Northeast 472 543 37,400  Climbing Aus ATC (RADAR)
06:53PM -29.9690 150.6830 38° Northeast 470 541 37,000 -360 Descending FlightAware
06:53PM -29.9020 150.7420 37° Northeast 468 539 37,000 240 Level FlightAware
06:54PM -29.8408 150.7962 37° Northeast 471 542 37,300  Climbing Aus ATC (RADAR)
06:54PM -29.8240 150.8100 37° Northeast 468 539 37,000  Descending FlightAware
06:54PM -29.7806 150.8490 37° Northeast 469 540 37,300  Climbing Aus ATC (RADAR)
06:55PM -29.7520 150.8730 37° Northeast 469 540 37,000 120 Descending FlightAware
06:55PM -29.7112 150.9090 37° Northeast 469 540 37,400  Climbing Aus ATC (RADAR)
06:55PM -29.6860 150.9310 37° Northeast 470 541 37,000  Descending FlightAware
06:56PM -29.6678 150.9464 37° Northeast 470 541 37,400 720 Climbing Aus ATC (RADAR)
06:56PM -29.6161 150.9919 37° Northeast 470 541 37,400 -600 Level Aus ATC (RADAR)
06:56PM -29.6110 150.9950 37° Northeast 472 543 37,000 -480 Descending FlightAware
06:57PM -29.5400 151.0570 37° Northeast 474 545 37,000 360 Level FlightAware
06:57PM -29.4846 151.1062 37° Northeast 473 544 37,400  Climbing Aus ATC (RADAR)
06:58PM -29.4570 151.1290 37° Northeast 475 547 37,000 -480 Descending FlightAware
06:58PM -29.3960 151.1820 37° Northeast 476 548 37,000 600 Level FlightAware
06:58PM -29.3791 151.1969 37° Northeast 475 547 37,400 540 Climbing Aus ATC (RADAR)
06:59PM -29.3090 151.2576 37° Northeast 476 548 37,400 -540 Level Aus ATC (RADAR)
06:59PM -29.3060 151.2590 37° Northeast 476 548 37,000  Descending FlightAware
06:59PM -29.2474 151.3106 37° Northeast 477 549 37,400  Climbing Aus ATC (RADAR)
07:00PM -29.2360 151.3200 37° Northeast 477 549 37,000  Descending FlightAware
07:00PM -29.1861 151.3639 37° Northeast 476 548 37,400  Climbing Aus ATC (RADAR)
07:00PM -29.1650 151.3810 37° Northeast 478 550 37,000  Descending FlightAware
07:01PM -29.1154 151.4244 37° Northeast 478 550 37,400  Climbing Aus ATC (RADAR)
07:01PM -29.0860 151.4490 37° Northeast 479 551 37,000 -420 Descending FlightAware
07:02PM -29.0150 151.5090 36° Northeast 480 552 37,000 360 Level FlightAware
07:02PM -28.9641 151.5528 36° Northeast 483 556 37,400 540 Climbing Aus ATC (RADAR)
07:02PM -28.9283 151.5838 37° Northeast 486 559 37,400 -1,080 Level Aus ATC (RADAR)
07:03PM -28.9360 151.5770 37° Northeast 493 567 37,000  Descending FlightAware
07:03PM -28.8821 151.6232 37° Northeast 496 571 37,400  Climbing Aus ATC (RADAR)
07:03PM -28.8600 151.6410 37° Northeast 512 589 37,000  Descending FlightAware
07:03PM -28.8151 151.6796 37° Northeast 514 592 37,400  Climbing Aus ATC (RADAR)
07:04PM -28.7830 151.7070 37° Northeast 526 605 37,000 -1,500 Descending FlightAware
07:05PM -28.6940 151.7820 36° Northeast 525 604 35,700 -1,980 Descending FlightAware
07:05PM -28.6105 151.8531 36° Northeast 525 604 34,300 -2,580 Descending Aus ATC (RADAR)
07:05PM -28.6170 151.8470 36° Northeast 528 608 34,000 -2,100 Descending FlightAware
07:06PM -28.5421 151.9108 36° Northeast 526 605 33,100 -1,920 Descending Aus ATC (RADAR)
07:06PM -28.5290 151.9220 36° Northeast 515 593 32,600 -2,160 Descending FlightAware
07:07PM -28.4550 151.9840 36° Northeast 506 582 31,200 -1,920 Descending FlightAware
07:07PM -28.3820 152.0460 36° Northeast 503 579 30,300 -2,100 Descending Aus ATC (RADAR)
07:07PM -28.3810 152.0470 36° Northeast 500 575 29,800 -1,920 Descending FlightAware
07:08PM -28.3179 152.0999 36° Northeast 491 565 29,200 -1,620 Descending Aus ATC (RADAR)
07:08PM -28.3000 152.1150 36° Northeast 481 554 28,600 -1,740 Descending FlightAware
07:08PM -28.2557 152.1523 36° Northeast 476 548 28,200 -2,040 Descending Aus ATC (RADAR)
07:09PM -28.2170 152.1850 36° Northeast 471 542 27,100 -2,220 Descending FlightAware
07:10PM -28.1420 152.2470 36° Northeast 459 528 25,700 -1,980 Descending FlightAware
07:10PM -28.0780 152.3010 37° Northeast 444 511 24,500 -2,100 Descending FlightAware
07:11PM -28.0010 152.3650 36° Northeast 436 502 22,800 -2,100 Descending FlightAware
07:11PM -27.9610 152.3985 36° Northeast 433 498 22,200 -1,980 Descending Aus ATC (RADAR)
07:12PM -27.9370 152.4180 36° Northeast 426 490 21,500 -1,800 Descending FlightAware
07:12PM -27.8680 152.4760 37° Northeast 406 467 20,300 -1,080 Descending FlightAware
07:13PM -27.8100 152.5246 37° Northeast 388 447 20,100 -900 Descending Aus ATC (RADAR)
07:13PM -27.8080 152.5260 37° Northeast 371 427 19,700 -1,380 Descending FlightAware
07:14PM -27.7641 152.5663 37° Northeast 367 422 19,300 -1,380 Descending Aus ATC (RADAR)
07:14PM -27.7590 152.5730 37° Northeast 358 412 18,800 -1,560 Descending FlightAware
07:14PM -27.7257 152.6142 37° Northeast 354 407 18,400 -1,380 Descending Aus ATC (RADAR)
07:14PM -27.7080 152.6350 37° Northeast 348 400 17,800 -1,200 Descending FlightAware
07:15PM -27.6872 152.6606 37° Northeast 347 399 17,700 -1,680 Descending Aus ATC (RADAR)
07:15PM -27.6630 152.6890 37° Northeast 340 391 16,700 -1,680 Descending FlightAware
07:16PM -27.6390 152.7280 55° Northeast 324 373 16,200 -1,200 Descending FlightAware
07:16PM -27.6240 152.7950 76° East 311 358 15,300 -1,440 Descending FlightAware
07:17PM -27.6090 152.8640 76° East 302 348 14,200 -1,320 Descending FlightAware
07:17PM -27.6009 152.9003 76° East 296 341 13,900 -1,800 Descending Aus ATC (RADAR)
07:18PM -27.5960 152.9240 76° East 303 349 13,000 -1,680 Descending FlightAware
07:18PM -27.5827 152.9843 76° East 292 336 12,400 -1,620 Descending Aus ATC (RADAR)
07:18PM -27.5800 152.9940 76° East 297 342 11,800 -1,500 Descending FlightAware
07:19PM -27.5675 153.0518 76° East 290 334 11,300 -1,380 Descending Aus ATC (RADAR)
07:19PM -27.5680 153.0520 76° East 291 335 10,900 -1,500 Descending FlightAware
07:19PM -27.5622 153.0800 76° East 278 320 10,800 -1,500 Descending Aus ATC (RADAR)
07:20PM -27.5560 153.1080 76° East 285 328 9,900 -1,680 Descending FlightAware
07:20PM -27.5470 153.1490 76° East 279 321 9,300 -1,080 Descending FlightAware
07:20PM -27.5390 153.1610 53° Northeast 270 311 9,200 -720 Descending FlightAware
07:21PM -27.5250 153.1710 32° Northeast 275 316 9,000 -1,080 Descending FlightAware
07:21PM -27.4920 153.1930 31° Northeast 261 300 8,400 -1,200 Descending FlightAware
07:22PM -27.4660 153.2090 29° Northeast 257 296 7,900 -1,320 Descending FlightAware
07:22PM -27.4330 153.2310 31° Northeast 254 292 7,200 -1,320 Descending FlightAware
07:23PM -27.4020 153.2510 30° Northeast 247 284 6,600 -1,380 Descending FlightAware
07:23PM -27.3910 153.2590 33° Northeast 248 285 6,300 -1,080 Descending FlightAware
07:23PM -27.3637 153.2773 33° Northeast 249 287 6,000 -1,200 Descending Aus ATC (RADAR)
07:23PM -27.3640 153.2760 33° Northeast 245 282 5,700 -900 Descending FlightAware
07:24PM -27.3470 153.2870 30° Northeast 232 267 5,700 120 Level FlightAware
07:24PM -27.3265 153.3012 30° Northeast 229 264 5,800 -720 Climbing Aus ATC (RADAR)
07:24PM -27.3250 153.3010 30° Northeast 221 254 5,400 -720 Descending FlightAware
07:24PM -27.3048 153.3150 30° Northeast 218 251 5,500 -600 Climbing Aus ATC (RADAR)
07:24PM -27.3000 153.3180 30° Northeast 207 238 5,100 -600 Descending FlightAware
07:25PM -27.2804 153.3307 30° Northeast 204 235 5,200 -840 Climbing Aus ATC (RADAR)
07:25PM -27.2730 153.3330 30° Northeast 203 234 4,700 -2,400 Descending FlightAware
07:25PM -27.2690 153.3340 13° North 205 236 4,600 -360 Descending FlightAware
07:26PM -27.2408 153.3193 13° North 212 244 4,500 -840 Descending Aus ATC (RADAR)
07:26PM -27.2430 153.3210 13° North 214 246 4,200 -1,500 Descending FlightAware
07:26PM -27.2280 153.3080 322° Northwest 215 247 4,000 -840 Descending FlightAware
07:26PM -27.2100 153.2880 315° West 219 252 3,600 -1,080 Descending FlightAware
07:27PM -27.2080 153.2710 278° West 216 249 3,300 -960 Descending FlightAware
07:27PM -27.2110 153.2360 264° West 210 242 2,900 -360 Descending FlightAware
07:27PM -27.2247 153.2193 264° West 210 242 3,000 -480 Climbing Aus ATC (RADAR)
07:28PM -27.2350 153.2140 264° West 187 215 2,600 -960 Descending FlightAware
07:28PM -27.2580 153.2010 207° Southwest 186 214 2,200 -900 Descending FlightAware
07:29PM -27.2820 153.1880 206° Southwest 185 213 1,700 -720 Descending FlightAware
07:29PM -27.3007 153.1771 206° Southwest 181 208 1,600 -960 Descending Aus ATC (RADAR)
07:29PM -27.3000 153.1770 206° Southwest 171 197 1,300 -600 Descending FlightAware
07:29PM -27.3142 153.1693 206° Southwest 170 196 1,400 -840 Climbing Aus ATC (RADAR)
07:30PM -27.3200 153.1660 206° Southwest 146 168 900 -900 Descending FlightAware
07:30PM -27.3344 153.1577 206° Southwest 142 163 900 -720 Level Aus ATC (RADAR)
07:30PM -27.3330 153.1580 206° Southwest 125 144 600 -1,500 Descending FlightAware
07:30PM -27.3410 153.1540 204° Southwest 120 138 400 -180 Descending FlightAware
07:31PM -27.3539 153.1469 204° Southwest 122 140 500 -600 Climbing Aus ATC (RADAR)
07:31PM -27.3560 153.1450 204° Southwest 118 136 100 -2,400 Descending FlightAware
07:31PM -27.3630 153.1410 207° Southwest 119 137 -420 Descending FlightAware
07:31PM -27.3760 153.1340 206° Southwest 120 138  Level FlightAware
07:32PM -27.3870 153.1270 209° Southwest 58 67  Level FlightAware
07:32PM -27.3900 153.1240 222° Southwest 24 28  Level FlightAware
07:33PM -27.3910 153.1220 241° Southwest 11 13  Level FlightAware